Time;durP1;ratioP1;P1;durP2;ratioP2;P2;SDS_P1;SDS_P2;PMS_P1;PMS_P2;Temp;Humidity;BMP_temperature;BMP_pressure;BME280_temperature;BME280_humidity;BME280_pressure;Samples;Min_cycle;Max_cycle;Signal;HPM_P1;HPM_P2
2021/05/17 00:01:21;;;;;;;;;;;;;;;22.00;49.47;99925.50;5036497;28;871;-56
2021/05/17 00:03:47;;;;;;;;;;;;;;;21.79;49.68;99925.41;5036467;28;791;-56
2021/05/17 00:06:13;;;;;;;;;;;;;;;21.71;50.23;99923.47;5036036;28;819;-53
2021/05/17 00:08:38;;;;;;;;;;;;;;;22.00;49.35;99919.16;5036649;28;782;-56
2021/05/17 00:11:04;;;;;;;;;;;;;;;22.29;48.75;99912.84;5036021;28;927;-57
2021/05/17 00:13:29;;;;;;;;;;;;;;;22.55;48.17;99911.91;5035577;28;958;-56
2021/05/17 00:15:55;;;;;;;;;;;;;;;22.55;47.85;99907.19;5036279;28;851;-55
2021/05/17 00:18:21;;;;;;;;;;;;;;;22.16;49.01;99905.56;5036180;28;1906;-54
2021/05/17 00:20:46;;;;;;;;;;;;;;;21.97;48.72;99895.72;5035821;28;787;-60
2021/05/17 00:23:12;;;;;;;;;;;;;;;21.81;50.03;99912.06;5036254;28;787;-58
2021/05/17 00:25:37;;;;;;;;;;;;;;;22.09;48.61;99906.09;5036210;28;773;-53
2021/05/17 00:28:03;;;;;;;;;;;;;;;22.30;48.62;99911.69;5035340;28;951;-58
2021/05/17 00:30:29;;;;;;;;;;;;;;;22.68;47.81;99910.84;5036203;28;764;-58
2021/05/17 00:32:54;;;;;;;;;;;;;;;22.41;48.07;99909.38;5035979;28;1112;-58
2021/05/17 00:35:20;;;;;;;;;;;;;;;22.27;48.45;99912.34;5035781;28;832;-57
2021/05/17 00:37:46;;;;;;;;;;;;;;;22.07;48.17;99919.44;5036018;28;1983;-57
2021/05/17 00:40:12;;;;;;;;;;;;;;;21.85;49.91;99918.56;5035863;28;1024;-58
2021/05/17 00:42:37;;;;;;;;;;;;;;;22.12;49.14;99919.28;5035136;28;955;-58
2021/05/17 00:45:04;;;;;;;;;;;;;;;22.41;48.19;99914.09;5036051;28;756;-55
2021/05/17 00:47:30;;;;;;;;;;;;;;;22.59;47.68;99918.41;5035787;28;820;-57
2021/05/17 00:49:55;;;;;;;;;;;;;;;22.73;47.56;99923.69;5034519;28;820;-56
2021/05/17 00:52:21;;;;;;;;;;;;;;;22.30;48.50;99924.72;5035175;28;776;-57
2021/05/17 00:54:47;;;;;;;;;;;;;;;22.16;48.68;99927.72;5021484;28;1115;-57
2021/05/17 00:57:15;;;;;;;;;;;;;;;22.00;47.95;99925.50;5038819;28;1910;-57
2021/05/17 00:59:41;;;;;;;;;;;;;;;21.85;49.63;99923.25;5039564;28;745;-59
2021/05/17 01:02:07;;;;;;;;;;;;;;;22.15;48.94;99926.91;5021816;28;1112;-57
2021/05/17 01:04:53;;;;;;;;;;;;;;;22.39;48.15;99925.53;5038600;28;1040;-57
2021/05/17 01:07:19;;;;;;;;;;;;;;;22.55;47.88;99921.03;5039282;28;764;-58
2021/05/17 01:09:47;;;;;;;;;;;;;;;22.63;47.47;99922.13;5039191;28;791;-59
2021/05/17 01:12:12;;;;;;;;;;;;;;;22.14;48.92;99918.94;5037319;28;935;-58
2021/05/17 01:14:37;;;;;;;;;;;;;;;22.01;48.75;99920.78;5021624;28;1261;-59
2021/05/17 01:17:03;;;;;;;;;;;;;;;21.75;49.97;99916.13;5038147;28;1917;-58
2021/05/17 01:19:33;;;;;;;;;;;;;;;21.99;49.40;99920.28;5021238;28;1111;-59
2021/05/17 01:22:07;;;;;;;;;;;;;;;22.28;48.69;99921.47;5039016;28;783;-58
2021/05/17 01:24:32;;;;;;;;;;;;;;;22.44;48.01;99917.03;5036822;28;1222;-57
2021/05/17 01:26:59;;;;;;;;;;;;;;;22.47;47.23;99916.38;5020773;28;1257;-59
2021/05/17 01:29:24;;;;;;;;;;;;;;;22.40;48.13;99916.09;5037589;28;791;-59
2021/05/17 01:31:50;;;;;;;;;;;;;;;22.52;47.66;99913.38;5021195;28;1408;-56
2021/05/17 01:34:16;;;;;;;;;;;;;;;22.42;47.97;99907.44;5038449;28;1100;-56
2021/05/17 01:36:43;;;;;;;;;;;;;;;22.24;48.12;99915.78;5038525;28;1918;-52
2021/05/17 01:39:08;;;;;;;;;;;;;;;22.14;47.63;99916.16;5021221;28;1484;-57
2021/05/17 01:41:34;;;;;;;;;;;;;;;22.08;47.31;99909.16;5020234;28;1246;-57
2021/05/17 01:43:59;;;;;;;;;;;;;;;22.01;47.14;99904.19;5020806;28;1112;-54
2021/05/17 01:46:31;;;;;;;;;;;;;;;21.96;47.16;99907.13;5021154;28;1135;-58
2021/05/17 01:49:12;;;;;;;;;;;;;;;21.94;47.81;99914.94;5038295;28;542;-59
2021/05/17 01:51:38;;;;;;;;;;;;;;;22.01;48.36;99915.25;5020779;28;1348;-54
2021/05/17 01:54:03;;;;;;;;;;;;;;;22.23;48.28;99911.38;5020740;28;1231;-57
2021/05/17 01:56:29;;;;;;;;;;;;;;;22.29;48.47;99914.81;5036769;28;1972;-56
2021/05/17 01:59:07;;;;;;;;;;;;;;;22.31;48.51;99916.06;5020797;28;1508;-53
2021/05/17 02:01:32;;;;;;;;;;;;;;;22.28;48.59;99924.25;5020937;28;1139;-58
2021/05/17 02:03:58;;;;;;;;;;;;;;;22.35;48.47;99917.06;5037241;28;780;-59
2021/05/17 02:06:24;;;;;;;;;;;;;;;22.38;48.21;99913.66;5020411;28;1345;-53
2021/05/17 02:08:50;;;;;;;;;;;;;;;22.40;48.18;99910.53;5038565;28;776;-59
2021/05/17 02:11:18;;;;;;;;;;;;;;;22.43;48.06;99909.88;5019808;28;1143;-59
2021/05/17 02:13:51;;;;;;;;;;;;;;;22.46;47.89;99914.72;5020709;28;1111;-59
2021/05/17 02:16:17;;;;;;;;;;;;;;;22.47;47.90;99919.13;5037943;28;732;-60
2021/05/17 02:18:43;;;;;;;;;;;;;;;22.53;47.72;99919.75;5019735;28;1914;-60
2021/05/17 02:21:09;;;;;;;;;;;;;;;22.50;47.86;99915.69;5038010;28;824;-60
2021/05/17 02:23:35;;;;;;;;;;;;;;;22.56;47.65;99917.09;5038116;28;703;-59
2021/05/17 02:26:03;;;;;;;;;;;;;;;22.57;47.71;99920.72;5019655;28;1194;-57
2021/05/17 02:28:29;;;;;;;;;;;;;;;22.41;48.13;99926.00;5038047;28;927;-59
2021/05/17 02:30:55;;;;;;;;;;;;;;;22.53;47.80;99917.78;5037671;28;812;-59
2021/05/17 02:33:20;;;;;;;;;;;;;;;22.32;48.22;99927.97;5037447;28;1084;-57
2021/05/17 02:35:46;;;;;;;;;;;;;;;21.76;49.47;99926.06;5037653;28;792;-57
2021/05/17 02:38:14;;;;;;;;;;;;;;;21.65;49.53;99930.31;5020005;28;1987;-58
2021/05/17 02:40:44;;;;;;;;;;;;;;;21.73;49.95;99926.72;5037347;28;831;-53
2021/05/17 02:43:10;;;;;;;;;;;;;;;22.17;48.48;99926.56;5035860;28;1242;-58
2021/05/17 02:46:05;;;;;;;;;;;;;;;22.48;47.83;99926.31;5019856;28;1051;-58
2021/05/17 02:48:33;;;;;;;;;;;;;;;22.53;47.71;99926.09;5019559;28;1163;-59
2021/05/17 02:50:59;;;;;;;;;;;;;;;22.71;47.10;99923.22;5037370;28;756;-56
2021/05/17 02:53:34;;;;;;;;;;;;;;;22.60;47.36;99919.22;5036085;28;867;-57
2021/05/17 02:56:07;;;;;;;;;;;;;;;22.65;47.14;99928.16;5036786;28;767;-57
2021/05/17 02:58:35;;;;;;;;;;;;;;;22.54;47.52;99922.19;5052187;28;1914;-58
2021/05/17 03:01:07;;;;;;;;;;;;;;;22.45;47.50;99924.19;5052378;28;776;-57
2021/05/17 03:03:37;;;;;;;;;;;;;;;22.41;47.13;99919.66;5035882;28;1343;-61
2021/05/17 03:06:06;;;;;;;;;;;;;;;22.26;46.96;99929.28;5037006;28;827;-59
2021/05/17 03:08:33;;;;;;;;;;;;;;;22.09;47.12;99928.25;5052788;28;1098;-58
2021/05/17 03:10:59;;;;;;;;;;;;;;;22.08;46.83;99934.91;5052366;28;968;-52
2021/05/17 03:13:25;;;;;;;;;;;;;;;22.02;47.51;99939.00;5035530;28;1225;-57
2021/05/17 03:15:51;;;;;;;;;;;;;;;22.10;47.93;99940.94;5037309;28;711;-59
2021/05/17 03:18:17;;;;;;;;;;;;;;;22.34;47.91;99932.06;5035805;28;1914;-58
2021/05/17 03:20:42;;;;;;;;;;;;;;;22.38;48.31;99937.75;5036982;28;764;-45
2021/05/17 03:23:12;;;;;;;;;;;;;;;22.25;48.71;99941.53;5036999;28;768;-48
2021/05/17 03:25:38;;;;;;;;;;;;;;;22.41;48.17;99939.03;5036472;28;824;-49
2021/05/17 03:28:03;;;;;;;;;;;;;;;22.47;47.85;99941.28;5036553;28;943;-53
2021/05/17 03:30:29;;;;;;;;;;;;;;;22.48;47.74;99944.88;5036861;28;879;-47
2021/05/17 03:32:54;;;;;;;;;;;;;;;22.44;47.80;99939.19;5036397;28;1194;-50
2021/05/17 03:35:20;;;;;;;;;;;;;;;22.54;47.51;99947.13;5036525;28;828;-47
2021/05/17 03:37:45;;;;;;;;;;;;;;;22.56;47.63;99942.03;5036491;28;1981;-50
2021/05/17 03:40:11;;;;;;;;;;;;;;;22.56;47.66;99946.78;5036242;28;1187;-53
2021/05/17 03:42:36;;;;;;;;;;;;;;;22.72;47.17;99938.69;5036371;28;967;-50
2021/05/17 03:45:11;;;;;;;;;;;;;;;22.71;47.20;99948.97;5036724;28;808;-53
2021/05/17 03:47:36;;;;;;;;;;;;;;;22.73;47.16;99948.63;5035263;28;881;-45
2021/05/17 03:50:03;;;;;;;;;;;;;;;22.70;47.41;99946.53;5036238;28;773;-49
2021/05/17 03:52:28;;;;;;;;;;;;;;;22.78;47.18;99942.91;5036464;28;815;-54
2021/05/17 03:54:53;;;;;;;;;;;;;;;22.12;48.82;99949.72;5036022;28;759;-47
2021/05/17 03:57:19;;;;;;;;;;;;;;;21.81;49.57;99950.81;5035353;28;1910;-48
2021/05/17 03:59:45;;;;;;;;;;;;;;;21.58;50.25;99941.88;5032217;28;752;-52
2021/05/17 04:02:19;;;;;;;;;;;;;;;22.03;49.05;99954.47;4999192;28;1092;-52
2021/05/17 04:13:25;;;;;;;;;;;;;;;22.59;47.60;99961.94;5033603;28;955;-56
2021/05/17 04:15:51;;;;;;;;;;;;;;;22.73;46.80;99962.50;5036531;28;788;-53
2021/05/17 04:18:17;;;;;;;;;;;;;;;22.51;47.46;99960.81;5035642;28;1898;-50
2021/05/17 04:20:43;;;;;;;;;;;;;;;22.58;47.47;99963.91;5035275;28;1115;-51
2021/05/17 04:23:08;;;;;;;;;;;;;;;22.66;47.34;99967.75;5036174;28;831;-53
2021/05/17 04:25:34;;;;;;;;;;;;;;;22.78;46.88;99967.84;5034370;28;1593;-53
2021/05/17 04:27:59;;;;;;;;;;;;;;;22.33;48.17;99971.13;5037116;28;951;-51
2021/05/17 04:30:25;;;;;;;;;;;;;;;22.15;48.78;99971.22;5040187;28;828;-49
2021/05/17 04:32:50;;;;;;;;;;;;;;;21.74;48.30;99978.16;5039350;28;1112;-53
2021/05/17 04:35:16;;;;;;;;;;;;;;;21.83;49.66;99978.94;5039864;28;760;-49
2021/05/17 04:37:41;;;;;;;;;;;;;;;22.19;48.59;99974.94;5039601;28;1961;-52
2021/05/17 04:40:07;;;;;;;;;;;;;;;22.38;48.28;99980.13;5039222;28;1166;-50
2021/05/17 04:42:32;;;;;;;;;;;;;;;22.61;47.37;99977.06;5021976;28;1071;-50
2021/05/17 04:44:58;;;;;;;;;;;;;;;22.64;47.41;99983.91;5039816;28;777;-49
2021/05/17 04:47:23;;;;;;;;;;;;;;;22.79;46.99;99972.25;5039491;28;788;-50
2021/05/17 04:49:49;;;;;;;;;;;;;;;21.93;49.31;99975.00;5039941;28;736;-51
2021/05/17 04:52:14;;;;;;;;;;;;;;;21.86;49.22;99978.28;5039612;28;800;-53
2021/05/17 04:54:40;;;;;;;;;;;;;;;21.62;49.64;99981.59;5038954;28;756;-53
2021/05/17 04:57:05;;;;;;;;;;;;;;;22.05;48.99;99979.88;5037935;28;1914;-48
2021/05/17 04:59:31;;;;;;;;;;;;;;;22.18;48.76;99976.09;5039395;28;768;-49
2021/05/17 05:01:56;;;;;;;;;;;;;;;22.49;47.83;99983.31;5038958;28;728;-50
2021/05/17 05:04:22;;;;;;;;;;;;;;;22.63;47.59;99985.84;5039228;28;787;-55
2021/05/17 05:06:47;;;;;;;;;;;;;;;22.17;48.60;99991.06;5039390;28;764;-49
2021/05/17 05:09:13;;;;;;;;;;;;;;;22.10;48.94;99990.75;5038856;28;807;-53
2021/05/17 05:11:38;;;;;;;;;;;;;;;21.97;47.92;99986.25;5038709;28;939;-51
2021/05/17 05:14:04;;;;;;;;;;;;;;;21.77;49.86;99994.09;5038948;28;744;-52
2021/05/17 05:16:29;;;;;;;;;;;;;;;22.15;48.87;99990.59;5038991;28;780;-47
2021/05/17 05:18:54;;;;;;;;;;;;;;;22.15;48.49;99993.34;5039072;28;1993;-48
2021/05/17 05:21:20;;;;;;;;;;;;;;;22.35;48.24;99991.03;5038935;28;776;-50
2021/05/17 05:23:46;;;;;;;;;;;;;;;22.56;47.52;99997.44;5039057;28;776;-50
2021/05/17 05:29:24;;;;;;;;;;;;;;;22.05;49.10;99988.19;5039034;28;732;-52
2021/05/17 05:33:51;;;;;;;;;;;;;;;21.81;49.68;99991.47;5020940;28;1164;-50
2021/05/17 05:36:16;;;;;;;;;;;;;;;22.02;49.07;99983.28;5038584;28;772;-49
2021/05/17 05:38:42;;;;;;;;;;;;;;;22.35;48.21;99982.72;5037200;28;1918;-54
2021/05/17 05:41:08;;;;;;;;;;;;;;;22.51;47.81;99988.53;5037913;28;958;-52
2021/05/17 05:43:33;;;;;;;;;;;;;;;22.36;48.07;99998.22;5038004;28;1006;-47
2021/05/17 05:45:58;;;;;;;;;;;;;;;22.31;47.74;99992.81;5038062;28;844;-49
2021/05/17 05:48:24;;;;;;;;;;;;;;;21.90;47.52;99986.75;5038548;28;867;-47
2021/05/17 05:50:50;;;;;;;;;;;;;;;21.99;49.47;99986.72;5038219;28;820;-46
2021/05/17 05:53:15;;;;;;;;;;;;;;;22.30;48.51;99988.41;5038177;28;748;-50
2021/05/17 05:55:41;;;;;;;;;;;;;;;22.50;47.81;99987.72;5038123;28;759;-45
2021/05/17 05:58:06;;;;;;;;;;;;;;;22.42;48.12;99996.06;5037660;28;1922;-47
2021/05/17 06:00:31;;;;;;;;;;;;;;;22.43;47.74;99997.69;5038353;28;768;-52
2021/05/17 06:02:57;;;;;;;;;;;;;;;21.97;47.66;99992.59;5038023;28;811;-53
2021/05/17 06:05:23;;;;;;;;;;;;;;;22.00;49.28;99999.44;5037803;28;732;-51
2021/05/17 06:07:48;;;;;;;;;;;;;;;22.30;48.46;99988.41;5038066;28;839;-48
2021/05/17 06:10:14;;;;;;;;;;;;;;;22.59;47.70;99995.19;5037628;28;755;-47
2021/05/17 06:12:40;;;;;;;;;;;;;;;22.42;48.10;99985.00;5037717;28;1014;-48
2021/05/17 06:15:06;;;;;;;;;;;;;;;22.33;48.34;99984.97;5037972;28;783;-46
2021/05/17 06:17:31;;;;;;;;;;;;;;;21.90;48.05;99989.53;5037392;28;1917;-46
2021/05/17 06:19:57;;;;;;;;;;;;;;;22.03;49.14;99990.47;5037792;28;866;-54
2021/05/17 06:22:25;;;;;;;;;;;;;;;22.29;48.54;99987.63;5037809;28;846;-46
2021/05/17 06:24:51;;;;;;;;;;;;;;;22.47;47.87;99990.31;5037190;28;860;-48
2021/05/17 06:27:16;;;;;;;;;;;;;;;22.58;47.72;99982.47;5037401;28;970;-51
2021/05/17 06:29:44;;;;;;;;;;;;;;;22.32;48.39;99975.06;5037928;28;756;-45
2021/05/17 06:32:10;;;;;;;;;;;;;;;22.10;48.55;99976.13;5037022;28;748;-53
2021/05/17 06:34:37;;;;;;;;;;;;;;;21.87;48.42;99974.38;5019275;28;1258;-50
2021/05/17 06:37:02;;;;;;;;;;;;;;;22.04;49.14;99972.72;5037487;28;1921;-49
2021/05/17 06:39:28;;;;;;;;;;;;;;;22.32;48.18;99972.28;5036753;28;1032;-47
2021/05/17 06:41:53;;;;;;;;;;;;;;;22.55;47.67;99975.63;5036920;28;995;-51
2021/05/17 06:44:19;;;;;;;;;;;;;;;22.34;48.03;99972.78;5037373;28;812;-52
2021/05/17 06:46:44;;;;;;;;;;;;;;;22.18;48.64;99970.53;5036883;28;737;-46
2021/05/17 06:49:10;;;;;;;;;;;;;;;22.02;48.20;99961.97;5035780;28;785;-47
2021/05/17 06:51:35;;;;;;;;;;;;;;;21.91;48.98;99966.25;5035425;28;843;-46
2021/05/17 06:54:02;;;;;;;;;;;;;;;22.15;48.64;99956.56;5036558;28;760;-47
2021/05/17 06:56:41;;;;;;;;;;;;;;;22.45;47.88;99957.41;5036790;28;1002;-47
2021/05/17 06:59:12;;;;;;;;;;;;;;;22.34;48.30;99950.63;5019069;28;1257;-47
2021/05/17 07:01:37;;;;;;;;;;;;;;;22.21;48.61;99961.56;5036942;28;804;-47
2021/05/17 07:04:03;;;;;;;;;;;;;;;22.27;47.63;99959.41;5037059;28;557;-46
2021/05/17 07:06:31;;;;;;;;;;;;;;;21.97;48.90;99953.03;5036992;28;784;-47
2021/05/17 07:11:48;;;;;;;;;;;;;;;22.38;48.16;99957.13;5036328;28;939;-46
2021/05/17 07:14:14;;;;;;;;;;;;;;;22.71;47.30;99953.72;5036753;28;775;-48
2021/05/17 07:16:40;;;;;;;;;;;;;;;22.39;47.94;99953.22;5035910;28;1913;-47
2021/05/17 07:19:05;;;;;;;;;;;;;;;22.19;48.37;99950.03;5036261;28;1127;-48
2021/05/17 07:24:14;;;;;;;;;;;;;;;22.01;49.23;99948.47;5036433;28;820;-45
2021/05/17 07:26:40;;;;;;;;;;;;;;;22.17;48.72;99946.75;5036317;28;928;-46
2021/05/17 07:29:07;;;;;;;;;;;;;;;22.42;47.78;99946.22;5036503;28;505;-55
2021/05/17 07:31:33;;;;;;;;;;;;;;;22.42;47.91;99944.25;5036308;28;743;-51
2021/05/17 07:33:58;;;;;;;;;;;;;;;22.14;48.65;99943.84;5036495;28;1284;-55
2021/05/17 07:36:24;;;;;;;;;;;;;;;21.78;48.76;99945.91;5035365;28;785;-45
2021/05/17 07:38:51;;;;;;;;;;;;;;;21.56;50.16;99938.66;5036129;28;1976;-50
2021/05/17 07:41:17;;;;;;;;;;;;;;;22.03;49.11;99930.38;5036173;28;991;-48
2021/05/17 07:43:42;;;;;;;;;;;;;;;22.39;48.21;99942.16;5036229;28;875;-49
2021/05/17 07:46:08;;;;;;;;;;;;;;;22.56;47.61;99939.28;5036452;28;972;-56
2021/05/17 07:48:34;;;;;;;;;;;;;;;22.19;48.49;99932.59;5036609;28;811;-50
2021/05/17 07:50:59;;;;;;;;;;;;;;;22.14;48.48;99946.63;5034961;28;1007;-46
2021/05/17 07:53:25;;;;;;;;;;;;;;;21.71;48.50;99951.13;5036118;28;741;-47
2021/05/17 07:55:53;;;;;;;;;;;;;;;21.98;49.10;99943.56;5036251;28;741;-51
2021/05/17 07:58:19;;;;;;;;;;;;;;;22.24;48.36;99946.25;5035822;28;1967;-45
2021/05/17 08:00:44;;;;;;;;;;;;;;;22.55;47.60;99932.13;5036065;28;496;-45
2021/05/17 08:03:10;;;;;;;;;;;;;;;22.36;48.07;99945.59;5037062;28;1179;-53
2021/05/17 08:05:35;;;;;;;;;;;;;;;22.13;48.50;99931.16;5040275;28;796;-46
2021/05/17 08:08:01;;;;;;;;;;;;;;;21.85;48.17;99928.78;5038868;28;1151;-49
2021/05/17 08:10:26;;;;;;;;;;;;;;;21.70;50.06;99924.63;5040124;28;507;-49
2021/05/17 08:12:52;;;;;;;;;;;;;;;22.17;48.53;99935.69;5039797;28;955;-48
2021/05/17 08:15:17;;;;;;;;;;;;;;;22.47;47.68;99932.97;5039788;28;737;-54
2021/05/17 08:17:43;;;;;;;;;;;;;;;22.64;47.25;99932.06;5040410;28;1971;-45
2021/05/17 08:20:08;;;;;;;;;;;;;;;22.26;48.19;99938.44;5040039;28;804;-53
2021/05/17 08:22:35;;;;;;;;;;;;;;;22.32;48.00;99930.75;5039758;28;748;-51
2021/05/17 08:25:01;;;;;;;;;;;;;;;22.02;47.62;99933.47;5039540;28;824;-47
2021/05/17 08:27:26;;;;;;;;;;;;;;;21.95;49.04;99931.22;5039737;28;954;-43
2021/05/17 08:29:52;;;;;;;;;;;;;;;22.43;47.67;99932.03;5039402;28;769;-45
2021/05/17 08:32:17;;;;;;;;;;;;;;;22.56;47.50;99927.38;5039545;28;1104;-47
2021/05/17 08:34:43;;;;;;;;;;;;;;;22.46;47.77;99927.78;5039644;28;749;-44
2021/05/17 08:37:08;;;;;;;;;;;;;;;22.30;47.92;99927.50;5039717;28;1895;-47
2021/05/17 08:39:34;;;;;;;;;;;;;;;21.90;47.91;99930.59;5039336;28;1146;-44
2021/05/17 08:41:59;;;;;;;;;;;;;;;21.99;48.94;99929.44;5039129;28;998;-45
2021/05/17 08:44:25;;;;;;;;;;;;;;;22.33;48.11;99932.34;5039271;28;828;-54
2021/05/17 08:46:50;;;;;;;;;;;;;;;22.41;47.74;99927.97;5039525;28;748;-47
2021/05/17 08:49:16;;;;;;;;;;;;;;;22.24;48.23;99934.38;5039912;28;780;-47
2021/05/17 08:51:41;;;;;;;;;;;;;;;22.21;47.76;99942.19;5039205;28;772;-47
2021/05/17 08:54:07;;;;;;;;;;;;;;;21.77;48.48;99933.22;5038967;28;843;-45
2021/05/17 08:56:33;;;;;;;;;;;;;;;21.96;48.86;99929.25;5039109;28;998;-53
2021/05/17 08:58:59;;;;;;;;;;;;;;;22.38;48.00;99923.91;5039281;28;1970;-48
2021/05/17 09:01:25;;;;;;;;;;;;;;;22.66;47.11;99917.88;5038053;28;859;-50
2021/05/17 09:04:00;;;;;;;;;;;;;;;22.80;46.64;99918.41;5038463;28;1208;-48
2021/05/17 09:06:38;;;;;;;;;;;;;;;22.48;47.31;99906.91;5038543;28;795;-52
2021/05/17 09:09:04;;;;;;;;;;;;;;;22.33;47.60;99905.53;5039361;28;772;-47
2021/05/17 09:11:30;;;;;;;;;;;;;;;21.79;47.42;99903.25;5038539;28;1002;-55
2021/05/17 09:14:09;;;;;;;;;;;;;;;21.97;49.09;99904.00;5038085;28;783;-49
2021/05/17 09:17:04;;;;;;;;;;;;;;;22.33;47.90;99899.97;5054394;28;771;-56
2021/05/17 09:19:30;;;;;;;;;;;;;;;22.55;47.08;99901.66;5047047;28;1298;-45
2021/05/17 09:22:05;;;;;;;;;;;;;;;22.33;47.86;99899.97;5038302;28;768;-46
2021/05/17 09:24:36;;;;;;;;;;;;;;;22.16;48.20;99888.94;5037304;28;789;-47
2021/05/17 09:27:02;;;;;;;;;;;;;;;21.70;48.43;99883.91;5038326;28;935;-47
2021/05/17 09:29:28;;;;;;;;;;;;;;;21.86;49.11;99886.94;5038158;28;823;-48
2021/05/17 09:31:54;;;;;;;;;;;;;;;22.27;48.05;99881.88;5038567;28;863;-47
2021/05/17 09:34:19;;;;;;;;;;;;;;;22.55;47.24;99885.03;5038793;28;1151;-53
2021/05/17 09:36:44;;;;;;;;;;;;;;;22.15;48.08;99890.13;5036916;28;1981;-56
2021/05/17 09:39:11;;;;;;;;;;;;;;;22.15;48.32;99890.13;5037217;28;1024;-46
2021/05/17 09:41:36;;;;;;;;;;;;;;;22.01;47.84;99888.38;5038091;28;936;-46
2021/05/17 09:44:02;;;;;;;;;;;;;;;21.73;49.42;99888.00;5037721;28;824;-57
2021/05/17 09:46:27;;;;;;;;;;;;;;;22.13;48.16;99879.38;5038560;28;812;-46
2021/05/17 09:48:54;;;;;;;;;;;;;;;22.42;47.78;99877.75;5038473;28;832;-46
2021/05/17 09:51:20;;;;;;;;;;;;;;;22.61;47.08;99890.34;5038111;28;785;-47
2021/05/17 09:53:46;;;;;;;;;;;;;;;22.17;48.14;99883.06;5038402;28;811;-49
2021/05/17 09:56:12;;;;;;;;;;;;;;;22.17;48.11;99868.44;5037886;28;939;-52
2021/05/17 09:58:37;;;;;;;;;;;;;;;21.75;48.67;99869.09;5038331;28;2221;-56
2021/05/17 10:01:07;;;;;;;;;;;;;;;22.12;48.21;99863.91;5038312;28;843;-56
2021/05/17 10:03:34;;;;;;;;;;;;;;;22.46;47.52;99861.28;5038129;28;859;-56
2021/05/17 10:05:59;;;;;;;;;;;;;;;22.66;46.87;99868.78;5037733;28;736;-46
2021/05/17 10:08:25;;;;;;;;;;;;;;;22.26;47.79;99860.06;5035735;28;1155;-55
2021/05/17 10:10:50;;;;;;;;;;;;;;;22.12;48.01;99861.13;5038142;28;789;-46
2021/05/17 10:13:16;;;;;;;;;;;;;;;22.07;47.49;99872.38;5037141;28;1007;-56
2021/05/17 10:15:41;;;;;;;;;;;;;;;21.82;49.11;99863.84;5019671;28;1189;-45
2021/05/17 10:18:07;;;;;;;;;;;;;;;22.08;48.42;99876.78;5037818;28;1914;-45
2021/05/17 10:20:32;;;;;;;;;;;;;;;22.46;47.30;99864.88;5037849;28;752;-52
2021/05/17 10:22:58;;;;;;;;;;;;;;;22.64;46.92;99868.34;5037923;28;844;-53
2021/05/17 10:25:24;;;;;;;;;;;;;;;22.56;47.04;99858.13;5037068;28;831;-46
2021/05/17 10:27:50;;;;;;;;;;;;;;;22.27;47.76;99858.94;5036835;28;959;-47
2021/05/17 10:30:20;;;;;;;;;;;;;;;22.12;47.58;99876.91;5038070;28;776;-49
2021/05/17 10:32:55;;;;;;;;;;;;;;;21.79;49.26;99872.81;5037465;28;1104;-50
2021/05/17 10:35:47;;;;;;;;;;;;;;;22.22;48.16;99873.78;5037550;28;769;-46
2021/05/17 10:38:20;;;;;;;;;;;;;;;22.58;47.18;99866.94;5034751;28;1906;-56
2021/05/17 10:40:50;;;;;;;;;;;;;;;22.20;47.94;99870.53;5037340;28;751;-56
2021/05/17 10:43:38;;;;;;;;;;;;;;;22.26;47.97;99877.50;5036653;28;1010;-56
2021/05/17 10:48:52;;;;;;;;;;;;;;;22.11;48.38;99889.16;5037586;28;732;-46
2021/05/17 10:51:20;;;;;;;;;;;;;;;22.36;47.62;99881.88;5036770;28;780;-47
2021/05/17 10:53:58;;;;;;;;;;;;;;;22.29;47.94;99882.38;5036196;28;814;-56
2021/05/17 10:56:39;;;;;;;;;;;;;;;22.30;47.88;99877.63;5036655;28;943;-51
2021/05/17 11:01:53;;;;;;;;;;;;;;;21.91;48.84;99868.53;5037287;28;819;-48
2021/05/17 11:04:32;;;;;;;;;;;;;;;22.29;47.90;99874.06;5035917;28;855;-46
2021/05/17 11:07:10;;;;;;;;;;;;;;;22.51;47.07;99866.63;5037037;28;807;-44
2021/05/17 11:09:47;;;;;;;;;;;;;;;22.31;47.86;99874.53;5036842;28;792;-43
2021/05/17 11:12:25;;;;;;;;;;;;;;;22.36;47.48;99876.34;5036306;28;987;-55
2021/05/17 11:15:29;;;;;;;;;;;;;;;21.79;48.08;99881.13;5036898;28;863;-44
2021/05/17 11:18:02;;;;;;;;;;;;;;;22.13;48.14;99871.06;4995310;28;1997;-48
2021/05/17 11:23:08;;;;;;;;;;;;;;;22.38;47.68;99885.13;5008278;28;904;-58
2021/05/17 11:25:51;;;;;;;;;;;;;;;22.39;47.62;99881.22;4999828;28;815;-49
2021/05/17 11:28:42;;;;;;;;;;;;;;;21.94;48.12;99888.06;5034610;28;1043;-49
2021/05/17 11:31:14;;;;;;;;;;;;;;;21.90;49.07;99880.78;5036214;28;771;-46
2021/05/17 11:33:46;;;;;;;;;;;;;;;22.36;47.56;99873.56;5017065;28;1166;-46
2021/05/17 11:36:11;;;;;;;;;;;;;;;22.50;47.39;99882.44;5026003;28;761;-54
2021/05/17 11:38:37;;;;;;;;;;;;;;;22.15;48.10;99887.34;5034412;28;1914;-57
2021/05/17 11:41:20;;;;;;;;;;;;;;;22.20;47.84;99887.13;5032841;28;1637;-45
2021/05/17 11:43:46;;;;;;;;;;;;;;;22.03;47.56;99885.25;5035991;28;736;-57
2021/05/17 11:46:15;;;;;;;;;;;;;;;21.99;48.52;99878.75;5035853;28;865;-44
2021/05/17 11:48:42;;;;;;;;;;;;;;;22.36;47.48;99877.16;5035652;28;808;-45
2021/05/17 11:51:07;;;;;;;;;;;;;;;22.47;47.32;99885.06;5034673;28;764;-46
2021/05/17 11:53:33;;;;;;;;;;;;;;;22.24;48.01;99882.56;5036322;28;784;-45
2021/05/17 11:55:58;;;;;;;;;;;;;;;22.17;48.09;99880.31;5034307;28;960;-53
2021/05/17 11:58:24;;;;;;;;;;;;;;;21.92;47.74;99875.72;5017780;28;1914;-52
2021/05/17 12:01:09;;;;;;;;;;;;;;;21.93;48.60;99882.88;5035968;28;784;-46
2021/05/17 12:03:41;;;;;;;;;;;;;;;22.36;47.47;99871.59;5035689;28;986;-44
2021/05/17 12:06:06;;;;;;;;;;;;;;;22.48;47.15;99870.91;5035861;28;832;-47
2021/05/17 12:08:33;;;;;;;;;;;;;;;22.39;47.26;99870.13;5036091;28;840;-44
2021/05/17 12:10:58;;;;;;;;;;;;;;;22.12;48.11;99872.22;5035599;28;1437;-48
2021/05/17 12:13:24;;;;;;;;;;;;;;;22.20;47.38;99870.53;5035504;28;943;-46
2021/05/17 12:15:49;;;;;;;;;;;;;;;21.87;48.11;99871.19;5036070;28;748;-46
2021/05/17 12:18:15;;;;;;;;;;;;;;;22.10;48.35;99880.00;5033390;28;1983;-45
2021/05/17 12:20:40;;;;;;;;;;;;;;;22.47;47.26;99876.75;5035623;28;831;-46
2021/05/17 12:23:05;;;;;;;;;;;;;;;22.69;46.63;99883.94;5035438;28;816;-46
2021/05/17 12:25:31;;;;;;;;;;;;;;;22.33;47.40;99875.06;5035388;28;817;-55
2021/05/17 12:27:56;;;;;;;;;;;;;;;22.15;47.83;99874.31;5035233;28;1018;-53
2021/05/17 12:30:25;;;;;;;;;;;;;;;22.02;47.50;99883.63;5036252;28;798;-46
2021/05/17 12:32:51;;;;;;;;;;;;;;;21.85;48.59;99874.28;5035187;28;1155;-49
2021/05/17 12:35:29;;;;;;;;;;;;;;;22.23;47.61;99878.16;5035421;28;760;-52
2021/05/17 12:37:55;;;;;;;;;;;;;;;22.54;46.88;99880.63;5036061;28;1914;-54
2021/05/17 12:40:22;;;;;;;;;;;;;;;22.72;46.47;99872.19;5035618;28;815;-55
2021/05/17 12:42:58;;;;;;;;;;;;;;;22.58;46.72;99871.63;5034958;28;951;-49
2021/05/17 12:45:23;;;;;;;;;;;;;;;22.23;47.68;99872.63;5035836;28;871;-51
2021/05/17 12:47:49;;;;;;;;;;;;;;;22.18;47.46;99870.84;5035300;28;819;-48
2021/05/17 12:50:34;;;;;;;;;;;;;;;21.78;47.71;99862.88;5038870;28;760;-55
2021/05/17 12:53:05;;;;;;;;;;;;;;;22.12;48.11;99871.38;5039262;28;752;-51
2021/05/17 12:55:44;;;;;;;;;;;;;;;22.43;47.24;99860.00;5038347;28;796;-51
2021/05/17 12:58:10;;;;;;;;;;;;;;;22.56;46.84;99864.47;5038781;28;1913;-52
2021/05/17 13:00:46;;;;;;;;;;;;;;;22.18;47.73;99859.78;5039258;28;823;-55
2021/05/17 13:03:12;;;;;;;;;;;;;;;22.13;48.06;99862.75;5038529;28;803;-52
2021/05/17 13:05:50;;;;;;;;;;;;;;;22.02;47.79;99858.72;5039166;28;729;-46
2021/05/17 13:08:15;;;;;;;;;;;;;;;21.99;48.41;99859.38;5039045;28;840;-48
2021/05/17 13:10:59;;;;;;;;;;;;;;;22.36;47.37;99857.75;5038525;28;712;-55
2021/05/17 13:13:40;;;;;;;;;;;;;;;22.45;46.97;99857.69;5037400;28;1005;-46
2021/05/17 13:16:06;;;;;;;;;;;;;;;22.69;46.45;99851.53;5039096;28;826;-45
2021/05/17 13:19:02;;;;;;;;;;;;;;;22.65;46.75;99844.19;5038646;28;1914;-45
2021/05/17 13:32:28;;;;;;;;;;;;;;;22.43;47.26;99837.00;5038198;28;1104;-48
2021/05/17 13:34:54;;;;;;;;;;;;;;;22.55;46.83;99842.63;5038553;28;815;-45
2021/05/17 13:37:19;;;;;;;;;;;;;;;22.64;46.69;99842.59;5038260;28;1902;-44
2021/05/17 13:39:45;;;;;;;;;;;;;;;22.36;47.13;99843.13;5038018;28;1024;-45
2021/05/17 13:42:10;;;;;;;;;;;;;;;22.19;47.94;99842.03;5037957;28;932;-54
2021/05/17 13:44:36;;;;;;;;;;;;;;;21.83;47.83;99848.88;5031542;28;1176;-53
2021/05/17 13:47:01;;;;;;;;;;;;;;;21.83;48.74;99848.88;5020453;28;736;-47